Ashotsk, Armenia

2:40 PM AMT on December 21, 2014 (GMT +0400)
SHIRAK | Change Station
CLOSE
Current Station
Airport
Location: SHIRAK,
Elevation: 5000 ft
Nearby Weather Stations

Elev 5000 ft 40.75 °N, 43.86 °E | Updated 10 minutes ago

Clear
Clear
36 °F
Feels Like 36 °F
N
0
Wind Variable Wind from North

Today
High -- | Low -- °F
--% Chance of Precip.
Yesterday
High -- | Low -- °F
Precip. -- in
8:25 AM 5:39 PM
Waning Crescent, 1% visible
Pressure 30.04 in
Visibility 5.0 miles
Clouds
Dew Point 23 °F
Humidity 60%
Rainfall 0.00 in
Snow Depth Not available.
UV Not available.
Pollen Not available.
Air Quality Not available.
Flu Activity Not available.
METAR UDSG 211030Z 00000MPS 8000 NSC 02/M05 Q1017 R02/CLRD70 NOSIG

More Conditions Fewer Conditions

Pressure 30.04 in
Visibility 5.0 miles
Clouds
Dew Point 23 °F
Humidity 60%
Rainfall 0.00 in
Snow Depth Not available.
UV Not available.
Pollen Not available.
Air Quality Not available.
Flu Activity Not available.
METAR UDSG 211030Z 00000MPS 8000 NSC 02/M05 Q1017 R02/CLRD70 NOSIG

More Conditions Fewer Conditions

10-Day Weather Forecast

Almanac

Astronomy

Dec. 21, 2014 Rise Set
Actual Time
Civil Twilight
Nautical Twilight
Astronomical Twilight
Moon
Length of Visible Light
Length of Day
Tomorrow will be .
, % of the Moon is Illuminated

Today's Extremes

Country Highs Country Lows

Community

WunderPhotos

Upload Photos

1,779,367 photos uploaded!

WunderBlogs® & News

Nearby

Air Quality

  Air Quality AQ Index Pollutant
Not available.

Snow Depth

Station Depth Elevation

Earthquake Activity

City Distance Mag. Time & Date
Minimum magnitude displayed is 2.5.

Coastal Water Temperatures

Place Temperature

Nearby Weather Stations